Time;durP1;ratioP1;P1;durP2;ratioP2;P2;SDS_P1;SDS_P2;PMS_P1;PMS_P2;Temp;Humidity;BMP_temperature;BMP_pressure;BME280_temperature;BME280_humidity;BME280_pressure;Samples;Min_cycle;Max_cycle;Signal;HPM_P1;HPM_P2
2022/03/01 00:03:04;;;;;;;17.17;12.40;;;;;;;-0.08;91.37;100979.11;1785104;80;21292;-79
2022/03/01 00:06:11;;;;;;;13.93;10.55;;;;;;;-0.07;91.51;100980.83;1786008;80;21268;-79
2022/03/01 00:09:18;;;;;;;18.82;11.78;;;;;;;-0.07;91.64;100970.08;1783630;80;21228;-80
2022/03/01 00:12:23;;;;;;;16.05;11.30;;;;;;;-0.07;91.83;100963.35;1785045;80;21768;-79
2022/03/01 00:15:29;;;;;;;12.53;9.80;;;;;;;-0.10;91.42;100950.08;1784818;80;21303;-79
2022/03/01 00:18:35;;;;;;;13.90;9.68;;;;;;;-0.11;90.56;100957.77;1785060;80;21327;-79
2022/03/01 00:21:40;;;;;;;13.93;10.43;;;;;;;-0.09;90.45;100957.21;1785134;80;21222;-79
2022/03/01 00:24:47;;;;;;;15.38;10.25;;;;;;;-0.06;90.65;100944.91;1784902;80;21751;-80
2022/03/01 00:27:52;;;;;;;13.83;10.85;;;;;;;-0.06;90.94;100935.48;1784064;80;21215;-79
2022/03/01 00:30:58;;;;;;;15.25;10.15;;;;;;;-0.05;90.79;100927.80;1783946;80;21185;-80
2022/03/01 00:34:04;;;;;;;15.75;11.30;;;;;;;-0.04;90.71;100926.88;1784920;80;21189;-80
2022/03/01 00:37:09;;;;;;;12.60;9.48;;;;;;;-0.06;90.83;100920.22;1785083;80;21181;-80
2022/03/01 00:40:15;;;;;;;14.90;11.20;;;;;;;-0.07;90.36;100913.11;1784683;80;21198;-80
2022/03/01 00:43:21;;;;;;;15.53;10.78;;;;;;;-0.05;90.39;100911.66;1785112;80;21850;-80
2022/03/01 00:46:27;;;;;;;17.57;12.03;;;;;;;-0.05;90.55;100907.63;1783704;80;21355;-80
2022/03/01 00:49:32;;;;;;;15.08;11.53;;;;;;;-0.06;90.80;100900.53;1785053;80;21825;-80
2022/03/01 00:52:37;;;;;;;16.85;12.05;;;;;;;-0.06;90.80;100904.56;1785094;80;21308;-80
2022/03/01 00:55:42;;;;;;;16.60;11.83;;;;;;;-0.05;90.91;100902.25;1783973;80;21205;-80
2022/03/01 00:58:47;;;;;;;17.15;11.90;;;;;;;-0.04;91.09;100907.56;1783683;80;21205;-80
2022/03/01 01:01:53;;;;;;;18.85;11.85;;;;;;;-0.06;91.29;100900.05;1783576;80;21839;-80
2022/03/01 01:04:58;;;;;;;18.82;12.03;;;;;;;-0.07;91.03;100903.70;1784698;80;21287;-79
2022/03/01 01:08:05;;;;;;;18.90;12.45;;;;;;;-0.09;91.46;100903.42;1784996;80;21299;-79
2022/03/01 01:11:09;;;;;;;19.23;12.93;;;;;;;-0.10;92.06;100897.64;1783413;80;21378;-79
2022/03/01 01:14:14;;;;;;;21.20;13.15;;;;;;;-0.13;92.52;100893.33;1785081;80;21252;-79
2022/03/01 01:17:20;;;;;;;22.65;15.25;;;;;;;-0.13;92.69;100892.47;1785112;80;21177;-79
2022/03/01 01:20:25;;;;;;;29.02;16.12;;;;;;;-0.14;93.26;100883.54;1784855;80;21327;-79
2022/03/01 01:23:31;;;;;;;34.05;18.70;;;;;;;-0.15;93.86;100875.55;1783453;80;21184;-79
2022/03/01 01:26:37;;;;;;;34.50;19.15;;;;;;;-0.15;94.62;100862.09;1784413;80;21296;-79
2022/03/01 01:29:45;;;;;;;32.25;18.57;;;;;;;-0.15;95.38;100862.09;1785106;80;21283;-79
2022/03/01 01:32:50;;;;;;;30.57;18.85;;;;;;;-0.18;96.00;100859.63;1785032;80;21177;-79
2022/03/01 01:35:55;;;;;;;34.03;19.57;;;;;;;-0.22;96.56;100856.73;1785048;80;21185;-79
2022/03/01 01:39:00;;;;;;;31.27;19.17;;;;;;;-0.26;97.17;100851.53;1784925;80;21232;-79
2022/03/01 01:42:06;;;;;;;38.40;20.37;;;;;;;-0.26;97.65;100836.74;1783181;80;21320;-79
2022/03/01 01:45:11;;;;;;;35.70;19.85;;;;;;;-0.24;98.17;100842.50;1784989;80;21338;-79
2022/03/01 01:48:17;;;;;;;35.10;20.17;;;;;;;-0.24;98.58;100819.64;1785084;80;21295;-79
2022/03/01 01:51:22;;;;;;;39.83;20.88;;;;;;;-0.27;99.07;100844.43;1784405;80;21294;-79
2022/03/01 01:54:28;;;;;;;39.10;19.75;;;;;;;-0.30;99.60;100828.48;1784999;80;21150;-79
2022/03/01 01:57:33;;;;;;;40.58;22.40;;;;;;;-0.29;99.83;100822.14;1784033;80;21326;-79
2022/03/01 02:00:39;;;;;;;38.90;22.00;;;;;;;-0.29;100.00;100826.17;1785000;80;21859;-79
2022/03/01 02:03:45;;;;;;;34.48;20.52;;;;;;;-0.30;100.00;100819.06;1785130;80;21820;-80
2022/03/01 02:07:02;;;;;;;37.00;20.02;;;;;;;-0.31;100.00;100811.97;1785022;80;21868;-79
2022/03/01 02:10:08;;;;;;;38.80;21.62;;;;;;;-0.32;100.00;100821.00;1785027;80;21307;-79
2022/03/01 02:13:14;;;;;;;35.75;20.85;;;;;;;-0.31;100.00;100825.41;1783872;80;21256;-79
2022/03/01 02:16:18;;;;;;;37.35;20.72;;;;;;;-0.31;100.00;100828.09;1785845;80;21169;-79
2022/03/01 02:19:24;;;;;;;48.65;20.92;;;;;;;-0.29;100.00;100832.03;1785039;80;21343;-79
2022/03/01 02:22:29;;;;;;;31.57;18.20;;;;;;;-0.28;100.00;100841.37;1783996;80;21678;-79
2022/03/01 02:25:36;;;;;;;28.62;17.20;;;;;;;-0.27;100.00;100844.91;1785038;80;21189;-79
2022/03/01 02:28:41;;;;;;;35.90;18.98;;;;;;;-0.26;99.86;100841.27;1783617;80;21263;-79
2022/03/01 02:31:46;;;;;;;28.17;15.05;;;;;;;-0.24;99.58;100843.36;1784523;80;21661;-79
2022/03/01 02:34:52;;;;;;;32.03;17.57;;;;;;;-0.24;99.00;100853.25;1785021;80;21577;-79
2022/03/01 02:37:58;;;;;;;29.87;17.37;;;;;;;-0.24;98.52;100850.56;1785037;80;21287;-79
2022/03/01 02:41:05;;;;;;;32.85;18.75;;;;;;;-0.23;98.79;100854.52;1783567;80;21767;-79
2022/03/01 02:44:10;;;;;;;42.05;20.88;;;;;;;-0.18;99.22;100846.17;1782785;80;21386;-79
2022/03/01 02:47:18;;;;;;;40.75;23.40;;;;;;;-0.17;99.75;100849.24;1783450;80;21240;-79
2022/03/01 02:50:24;;;;;;;37.20;20.52;;;;;;;-0.16;100.00;100857.69;1784907;80;21300;-79
2022/03/01 02:53:30;;;;;;;38.78;21.60;;;;;;;-0.18;100.00;100853.76;1785017;80;21787;-79
2022/03/01 02:56:35;;;;;;;33.20;20.12;;;;;;;-0.17;100.00;100843.86;1785001;80;21184;-79
2022/03/01 02:59:41;;;;;;;32.55;18.05;;;;;;;-0.16;100.00;100844.24;1784894;80;21295;-79
2022/03/01 03:02:47;;;;;;;29.27;17.12;;;;;;;-0.18;100.00;100864.52;1783561;80;21296;-79
2022/03/01 03:05:54;;;;;;;27.95;17.17;;;;;;;-0.20;99.61;100846.25;1783785;80;21173;-79
2022/03/01 03:09:00;;;;;;;29.72;17.15;;;;;;;-0.21;99.48;100846.35;1785235;80;21295;-79
2022/03/01 03:12:05;;;;;;;28.83;18.10;;;;;;;-0.20;99.49;100858.83;1783515;80;21874;-79
2022/03/01 03:15:10;;;;;;;30.23;17.67;;;;;;;-0.20;99.33;100846.73;1783686;80;21362;-79
2022/03/01 03:18:17;;;;;;;34.50;17.07;;;;;;;-0.18;99.21;100859.63;1785075;80;21276;-80
2022/03/01 03:21:22;;;;;;;31.37;17.48;;;;;;;-0.19;98.98;100845.77;1785183;80;21288;-80
2022/03/01 03:24:28;;;;;;;26.48;15.32;;;;;;;-0.18;98.76;100850.21;1785122;80;21223;-80
2022/03/01 03:27:33;;;;;;;24.65;13.50;;;;;;;-0.20;98.26;100848.08;1784184;80;21267;-81
2022/03/01 03:30:38;;;;;;;23.38;14.55;;;;;;;-0.21;97.92;100849.05;1785081;80;21185;-80
2022/03/01 03:33:45;;;;;;;28.87;16.32;;;;;;;-0.20;97.63;100856.14;1783460;80;21886;-80
2022/03/01 03:36:51;;;;;;;27.15;15.08;;;;;;;-0.19;97.68;100860.55;1785094;80;21297;-80
2022/03/01 03:39:56;;;;;;;31.10;18.20;;;;;;;-0.19;97.85;100865.93;1785225;80;21186;-80
2022/03/01 03:43:02;;;;;;;24.98;14.73;;;;;;;-0.18;98.18;100862.31;1784317;80;21838;-80
2022/03/01 03:46:08;;;;;;;30.20;16.10;;;;;;;-0.16;98.10;100859.03;1782146;80;21311;-80
2022/03/01 03:49:12;;;;;;;24.67;14.98;;;;;;;-0.16;97.88;100877.37;1784904;80;21287;-81
2022/03/01 03:52:18;;;;;;;26.17;15.18;;;;;;;-0.16;97.56;100872.48;1785000;80;21331;-81
2022/03/01 03:55:27;;;;;;;24.60;14.35;;;;;;;-0.19;97.54;100866.80;1785034;80;21197;-80
2022/03/01 03:58:33;;;;;;;28.55;16.55;;;;;;;-0.19;97.69;100869.97;1785004;80;21208;-80
2022/03/01 04:01:37;;;;;;;25.57;15.35;;;;;;;-0.19;98.02;100861.41;1785018;80;21339;-80
2022/03/01 04:04:44;;;;;;;24.75;15.55;;;;;;;-0.19;98.00;100857.38;1784378;80;21299;-80
2022/03/01 04:07:51;;;;;;;22.62;14.18;;;;;;;-0.17;98.03;100859.52;1785124;80;21279;-80
2022/03/01 04:10:57;;;;;;;25.48;13.65;;;;;;;-0.13;97.92;100861.55;1785139;80;21359;-79
2022/03/01 04:14:03;;;;;;;30.05;13.38;;;;;;;-0.11;97.71;100848.86;1784089;80;21218;-80
2022/03/01 04:17:10;;;;;;;25.12;14.40;;;;;;;-0.13;97.55;100846.75;1784920;80;21303;-79
2022/03/01 04:20:18;;;;;;;21.90;12.70;;;;;;;-0.15;97.44;100858.06;1785097;80;22615;-79
2022/03/01 04:23:22;;;;;;;22.32;12.60;;;;;;;-0.15;97.24;100859.41;1784575;80;21370;-79
2022/03/01 04:26:28;;;;;;;23.07;13.40;;;;;;;-0.14;97.11;100851.72;1784883;80;21363;-79
2022/03/01 04:29:35;;;;;;;20.15;12.15;;;;;;;-0.13;96.88;100870.47;1784406;80;21322;-79
2022/03/01 04:32:42;;;;;;;22.62;12.60;;;;;;;-0.10;96.80;100855.47;1785081;80;21300;-79
2022/03/01 04:35:47;;;;;;;20.08;11.43;;;;;;;-0.09;96.70;100855.88;1784951;80;21228;-79
2022/03/01 04:38:53;;;;;;;22.80;12.90;;;;;;;-0.10;96.34;100867.58;1784864;80;21382;-79
2022/03/01 04:41:59;;;;;;;21.40;12.78;;;;;;;-0.09;96.20;100848.30;1784975;80;21748;-79
2022/03/01 04:45:05;;;;;;;20.75;12.63;;;;;;;-0.10;96.30;100843.85;1781704;80;21227;-80
2022/03/01 04:48:11;;;;;;;18.92;11.73;;;;;;;-0.10;96.24;100833.95;1771429;81;21296;-79
2022/03/01 04:51:21;;;;;;;21.00;13.20;;;;;;;-0.12;96.22;100831.00;1771379;81;21205;-79
2022/03/01 04:54:24;;;;;;;20.40;12.50;;;;;;;-0.13;96.25;100834.17;1769702;81;21847;-79
2022/03/01 04:57:29;;;;;;;19.67;12.00;;;;;;;-0.11;96.29;100832.23;1771352;81;21288;-80
2022/03/01 05:00:34;;;;;;;20.77;11.63;;;;;;;-0.09;96.48;100844.27;1770508;81;21225;-80
2022/03/01 05:03:40;;;;;;;19.62;12.00;;;;;;;-0.11;96.70;100827.34;1770941;81;21220;-80
2022/03/01 05:06:46;;;;;;;18.70;11.25;;;;;;;-0.12;96.66;100835.03;1771421;81;21305;-80
2022/03/01 05:09:51;;;;;;;19.45;11.68;;;;;;;-0.11;96.79;100831.38;1771415;81;21285;-80
2022/03/01 05:13:05;;;;;;;22.42;12.60;;;;;;;-0.10;96.87;100835.30;1771417;81;21824;-80
2022/03/01 05:16:10;;;;;;;19.37;12.53;;;;;;;-0.09;96.85;100833.02;1770181;81;21395;-80
2022/03/01 05:19:16;;;;;;;20.70;13.15;;;;;;;-0.10;96.68;100827.72;1769684;81;21197;-80
2022/03/01 05:22:21;;;;;;;17.42;11.97;;;;;;;-0.11;96.53;100838.09;1769876;81;21288;-80
2022/03/01 05:25:27;;;;;;;18.85;11.88;;;;;;;-0.13;96.28;100823.90;1770185;81;21788;-80
2022/03/01 05:28:33;;;;;;;20.40;11.30;;;;;;;-0.10;96.14;100821.86;1771396;81;21713;-80
2022/03/01 05:31:39;;;;;;;18.90;12.68;;;;;;;-0.07;96.01;100819.47;1769828;81;21307;-80
2022/03/01 05:34:45;;;;;;;18.00;12.05;;;;;;;-0.06;95.78;100822.54;1770704;81;21178;-80
2022/03/01 05:37:52;;;;;;;19.48;12.40;;;;;;;-0.05;95.67;100829.64;1771237;81;21166;-80
2022/03/01 05:40:58;;;;;;;17.55;10.82;;;;;;;-0.03;95.54;100828.59;1771374;81;21886;-80
2022/03/01 05:44:04;;;;;;;19.45;11.93;;;;;;;-0.01;95.18;100832.04;1771021;81;21323;-80
2022/03/01 05:47:11;;;;;;;17.07;12.30;;;;;;;0.01;94.94;100839.17;1776804;80;21299;-80
2022/03/01 05:50:18;;;;;;;16.65;11.65;;;;;;;0.03;94.83;100837.23;1783657;80;21358;-80
2022/03/01 05:53:23;;;;;;;16.70;11.95;;;;;;;0.05;94.76;100832.16;1785203;80;21300;-80
2022/03/01 05:56:30;;;;;;;16.85;12.23;;;;;;;0.08;94.67;100826.56;1785214;80;21299;-80
2022/03/01 05:59:35;;;;;;;15.43;11.78;;;;;;;0.10;94.18;100834.08;1784778;80;21926;-80
2022/03/01 06:02:41;;;;;;;19.37;14.13;;;;;;;0.12;93.99;100834.83;1785084;80;21114;-79
2022/03/01 06:05:47;;;;;;;22.98;16.70;;;;;;;0.12;94.03;100830.80;1783961;80;21322;-79
2022/03/01 06:08:53;;;;;;;25.55;18.37;;;;;;;0.12;94.19;100831.28;1783496;80;21188;-79
2022/03/01 06:11:58;;;;;;;23.65;16.35;;;;;;;0.10;94.14;100824.66;1784891;80;22135;-79
2022/03/01 06:15:04;;;;;;;23.62;16.27;;;;;;;0.08;94.12;100846.74;1784285;80;21296;-79
2022/03/01 06:18:10;;;;;;;22.77;16.12;;;;;;;0.10;93.90;100838.11;1783908;80;21181;-80
2022/03/01 06:21:16;;;;;;;23.75;17.57;;;;;;;0.14;93.70;100841.00;1778354;80;21907;-79
2022/03/01 06:24:21;;;;;;;21.55;14.80;;;;;;;0.19;93.20;100832.16;1784843;80;21803;-79
2022/03/01 06:27:27;;;;;;;24.60;15.85;;;;;;;0.23;92.70;100835.00;1766310;80;21315;-80
2022/03/01 06:30:32;;;;;;;22.17;15.75;;;;;;;0.30;92.48;100830.60;1762384;80;21303;-80
2022/03/01 06:33:38;;;;;;;22.20;16.25;;;;;;;0.37;92.12;100829.23;1764046;80;21231;-80
2022/03/01 06:36:43;;;;;;;28.02;16.32;;;;;;;0.41;91.59;100824.03;1769409;80;21287;-80
2022/03/01 06:39:53;;;;;;;21.20;14.45;;;;;;;0.47;91.36;100806.13;1771279;80;21316;-81
2022/03/01 06:42:58;;;;;;;17.98;12.28;;;;;;;0.47;91.07;100813.75;1777328;80;21707;-81
2022/03/01 06:46:02;;;;;;;19.70;12.90;;;;;;;0.50;90.55;100834.21;1771113;80;21327;-81
2022/03/01 06:49:10;;;;;;;16.55;13.05;;;;;;;0.52;90.03;100822.88;1764272;80;21322;-81
2022/03/01 06:52:16;;;;;;;21.70;13.65;;;;;;;0.56;89.84;100824.86;1750432;82;21243;-81
2022/03/01 06:55:22;;;;;;;17.82;13.20;;;;;;;0.57;89.80;100818.55;1774299;80;21196;-81
2022/03/01 06:58:27;;;;;;;21.80;11.97;;;;;;;0.58;90.32;100821.13;1782228;80;21742;-81
2022/03/01 07:01:31;;;;;;;17.85;12.43;;;;;;;0.59;90.72;100839.00;1773825;80;21327;-81
2022/03/01 07:04:37;;;;;;;22.13;13.93;;;;;;;0.56;91.10;100832.94;1716635;83;21802;-81
2022/03/01 07:07:42;;;;;;;22.77;14.03;;;;;;;0.53;91.58;100843.44;1706961;83;21308;-81
2022/03/01 07:10:48;;;;;;;18.85;14.40;;;;;;;0.51;92.12;100834.59;1707890;83;21311;-80
2022/03/01 07:13:57;;;;;;;20.80;14.33;;;;;;;0.51;92.52;100842.17;1707991;83;21754;-81
2022/03/01 07:17:04;;;;;;;23.75;14.60;;;;;;;0.53;92.63;100852.00;1734262;82;21199;-81
2022/03/01 07:20:09;;;;;;;20.00;14.28;;;;;;;0.53;92.61;100849.31;1735672;82;21263;-81
2022/03/01 07:23:14;;;;;;;19.20;13.30;;;;;;;0.57;92.64;100838.73;1737158;82;21335;-81
2022/03/01 07:26:19;;;;;;;17.62;12.20;;;;;;;0.61;92.54;100845.62;1739467;82;21349;-80
2022/03/01 07:29:24;;;;;;;19.07;13.50;;;;;;;0.65;92.96;100845.32;1699012;83;21191;-80
2022/03/01 07:32:30;;;;;;;18.37;12.82;;;;;;;0.68;92.58;100835.70;1697970;84;21375;-80
2022/03/01 07:35:37;;;;;;;16.02;10.72;;;;;;;0.70;92.23;100839.64;1714854;83;21318;-80
2022/03/01 07:38:42;;;;;;;22.00;13.15;;;;;;;0.70;91.63;100837.80;1710950;83;21331;-80
2022/03/01 07:41:47;;;;;;;17.35;12.10;;;;;;;0.71;92.08;100836.86;1706171;83;21240;-80
2022/03/01 07:44:52;;;;;;;16.25;12.65;;;;;;;0.72;91.99;100840.42;1716561;83;21192;-80
2022/03/01 07:48:01;;;;;;;14.05;10.35;;;;;;;0.71;91.73;100843.59;1705835;83;22015;-80
2022/03/01 07:51:07;;;;;;;11.63;9.55;;;;;;;0.71;91.08;100831.48;1671751;85;21194;-80
2022/03/01 07:54:13;;;;;;;14.55;9.80;;;;;;;0.75;90.41;100827.63;1676878;85;21764;-80
2022/03/01 07:57:19;;;;;;;14.95;10.53;;;;;;;0.81;89.83;100829.53;1672267;85;21801;-79
2022/03/01 08:00:24;;;;;;;17.20;10.55;;;;;;;0.84;89.59;100844.98;1677380;85;21386;-79
2022/03/01 08:03:30;;;;;;;14.28;10.78;;;;;;;0.87;90.00;100836.70;1686813;84;21245;-80
2022/03/01 08:06:36;;;;;;;15.23;11.20;;;;;;;0.90;90.18;100832.48;1676961;85;21810;-80
2022/03/01 08:09:44;;;;;;;16.97;11.43;;;;;;;0.94;90.63;100833.11;1660276;85;21740;-80
2022/03/01 08:12:52;;;;;;;22.60;11.93;;;;;;;1.01;90.87;100833.09;1654457;85;21221;-81
2022/03/01 08:15:58;;;;;;;14.13;10.75;;;;;;;1.05;90.78;100830.59;1676952;85;21279;-81
2022/03/01 08:19:03;;;;;;;14.35;10.00;;;;;;;1.07;91.15;100826.43;1671906;85;21875;-81
2022/03/01 08:22:09;;;;;;;16.50;10.53;;;;;;;1.08;91.25;100824.97;1678498;85;21322;-81
2022/03/01 08:25:15;;;;;;;16.35;10.43;;;;;;;1.10;91.29;100816.31;1681361;85;21892;-81
2022/03/01 08:28:20;;;;;;;14.78;11.33;;;;;;;1.12;90.84;100815.72;1676514;85;21342;-81
2022/03/01 08:31:27;;;;;;;17.17;11.03;;;;;;;1.14;90.79;100817.84;1679165;85;21335;-81
2022/03/01 08:34:34;;;;;;;17.40;12.03;;;;;;;1.16;90.81;100809.16;1688910;84;21346;-81
2022/03/01 08:37:33;;;;;;;25.65;12.85;;;;;;;1.19;90.58;100825.12;1666659;85;21321;-81
2022/03/01 08:40:42;;;;;;;20.77;12.60;;;;;;;1.18;90.43;100818.02;1674168;85;22435;-81
2022/03/01 08:43:49;;;;;;;18.23;13.05;;;;;;;1.20;90.64;100820.11;1673677;85;21332;-80
2022/03/01 08:46:55;;;;;;;21.52;13.95;;;;;;;1.24;90.46;100818.94;1670170;85;21347;-80
2022/03/01 08:50:02;;;;;;;16.57;11.43;;;;;;;1.27;90.54;100829.52;1689953;82;21220;-80
2022/03/01 08:53:09;;;;;;;18.42;12.23;;;;;;;1.30;90.69;100814.95;1707879;83;21288;-80
2022/03/01 08:56:15;;;;;;;17.17;11.60;;;;;;;1.32;91.16;100822.92;1714641;83;21299;-80
2022/03/01 08:59:24;;;;;;;16.80;11.10;;;;;;;1.34;91.25;100816.97;1718294;83;21304;-80
2022/03/01 09:02:29;;;;;;;19.17;10.63;;;;;;;1.33;91.45;100812.06;1725813;83;21307;-81
2022/03/01 09:05:35;;;;;;;18.37;11.60;;;;;;;1.37;91.87;100809.54;1726564;83;21342;-80
2022/03/01 09:08:41;;;;;;;19.98;12.45;;;;;;;1.39;92.00;100800.84;1721103;83;21376;-80
2022/03/01 09:11:45;;;;;;;19.62;11.78;;;;;;;1.44;91.74;100789.27;1707452;82;21307;-80
2022/03/01 09:14:51;;;;;;;18.35;12.60;;;;;;;1.53;91.64;100775.63;1715850;82;21217;-80
2022/03/01 09:17:59;;;;;;;22.20;13.65;;;;;;;1.60;90.87;100790.42;1719560;82;21804;-80
2022/03/01 09:21:05;;;;;;;23.45;13.78;;;;;;;1.62;90.15;100789.82;1722228;82;21350;-80
2022/03/01 09:24:13;;;;;;;20.32;12.75;;;;;;;1.65;90.36;100795.50;1716102;82;22320;-80
2022/03/01 09:27:20;;;;;;;20.72;12.98;;;;;;;1.65;90.72;100790.97;1710209;82;21343;-80
2022/03/01 09:30:27;;;;;;;21.55;12.65;;;;;;;1.68;90.36;100784.48;1715193;82;21178;-80
2022/03/01 09:33:33;;;;;;;22.55;14.43;;;;;;;1.68;90.32;100803.35;1709385;82;21182;-80
2022/03/01 09:36:37;;;;;;;22.30;13.40;;;;;;;1.68;90.11;100792.08;1691059;85;21326;-80
2022/03/01 09:39:44;;;;;;;19.30;12.78;;;;;;;1.69;90.24;100807.28;1696325;82;21256;-80
2022/03/01 09:42:51;;;;;;;26.12;14.15;;;;;;;1.69;90.13;100795.14;1709216;82;21202;-80
2022/03/01 09:45:57;;;;;;;21.07;13.90;;;;;;;1.69;90.13;100793.80;1721945;82;21366;-80
2022/03/01 09:49:05;;;;;;;23.77;14.18;;;;;;;1.71;90.14;100802.66;1711796;82;21914;-80
2022/03/01 09:52:11;;;;;;;22.93;13.38;;;;;;;1.74;90.26;100800.22;1701107;82;21304;-80
2022/03/01 09:55:18;;;;;;;25.20;14.07;;;;;;;1.76;90.31;100805.89;1750340;81;21313;-80
2022/03/01 09:58:25;;;;;;;19.82;13.22;;;;;;;1.75;90.47;100801.97;1755159;81;21695;-80
2022/03/01 10:01:31;;;;;;;24.67;14.65;;;;;;;1.75;90.63;100796.08;1757454;81;21299;-80
2022/03/01 10:04:38;;;;;;;22.48;14.65;;;;;;;1.75;90.76;100800.13;1757117;81;22761;-80
2022/03/01 10:07:45;;;;;;;23.60;15.45;;;;;;;1.76;90.92;100801.84;1692256;84;21264;-80
2022/03/01 10:10:56;;;;;;;29.18;16.52;;;;;;;1.77;91.06;100800.88;1760398;80;21276;-80
2022/03/01 10:14:06;;;;;;;25.32;15.50;;;;;;;1.79;91.03;100802.99;1751123;81;21358;-79
2022/03/01 10:17:20;;;;;;;28.47;17.30;;;;;;;1.81;91.04;100780.44;1760963;81;21309;-80
2022/03/01 10:20:26;;;;;;;34.98;16.85;;;;;;;1.83;91.04;100789.27;1739117;82;21330;-80
2022/03/01 10:23:32;;;;;;;33.02;18.62;;;;;;;1.82;91.11;100783.50;1741028;81;21209;-80
2022/03/01 10:26:38;;;;;;;28.85;18.02;;;;;;;1.81;91.03;100792.08;1749146;81;21305;-80
2022/03/01 10:29:50;;;;;;;25.48;17.00;;;;;;;1.84;91.10;100785.63;1746535;81;22515;-81
2022/03/01 10:32:55;;;;;;;37.23;19.92;;;;;;;1.86;91.19;100783.67;1755215;81;21174;-81
2022/03/01 10:36:05;;;;;;;36.33;18.30;;;;;;;1.89;91.29;100780.27;1763141;81;21331;-81
2022/03/01 10:39:17;;;;;;;27.95;18.35;;;;;;;1.91;91.34;100779.66;1751226;81;21316;-81
2022/03/01 10:42:22;;;;;;;36.93;19.70;;;;;;;1.96;91.44;100770.75;1755043;81;21339;-81
2022/03/01 10:45:27;;;;;;;31.55;20.62;;;;;;;1.97;91.31;100768.42;1761282;81;21304;-81
2022/03/01 10:48:37;;;;;;;34.23;18.35;;;;;;;2.00;91.30;100766.00;1745122;79;21782;-81
2022/03/01 10:52:06;;;;;;;33.15;21.20;;;;;;;2.01;91.36;100756.93;1751523;80;21432;-81
2022/03/01 10:55:13;;;;;;;27.90;20.15;;;;;;;2.04;91.58;100759.42;1753747;81;21213;-81
2022/03/01 10:58:19;;;;;;;31.77;18.90;;;;;;;2.10;91.41;100767.55;1759177;81;21351;-81
2022/03/01 11:01:26;;;;;;;27.48;19.23;;;;;;;2.11;91.37;100752.59;1758534;81;21305;-81
2022/03/01 11:04:33;;;;;;;31.05;20.75;;;;;;;2.16;91.05;100760.35;1743444;81;21308;-81
2022/03/01 11:07:38;;;;;;;31.85;20.48;;;;;;;2.16;90.71;100743.66;1699424;84;21322;-80
2022/03/01 11:10:45;;;;;;;33.90;21.80;;;;;;;2.15;90.67;100733.85;1755010;81;21328;-81
2022/03/01 11:13:53;;;;;;;39.92;23.20;;;;;;;2.18;90.71;100728.73;1753628;81;21935;-81
2022/03/01 11:17:09;;;;;;;38.25;22.70;;;;;;;2.23;90.91;100739.56;1759894;81;21340;-82
2022/03/01 11:20:34;;;;;;;33.02;22.50;;;;;;;2.28;90.68;100737.88;1753118;81;21866;-81
2022/03/01 11:26:23;;;;;;;37.28;22.45;;;;;;;2.45;90.98;100716.39;1834358;76;28092;-83
2022/03/01 11:29:31;;;;;;;31.27;18.70;;;;;;;2.47;90.74;100717.12;1773816;80;21275;-83
2022/03/01 11:32:35;;;;;;;36.85;20.30;;;;;;;2.47;90.35;100721.17;1757729;80;21287;-83
2022/03/01 11:35:56;;;;;;;32.40;19.17;;;;;;;2.44;90.62;100721.39;1779536;80;21319;-83
2022/03/01 11:39:00;;;;;;;30.60;19.07;;;;;;;2.44;90.83;100703.34;1741886;82;21282;-76
2022/03/01 11:42:16;;;;;;;34.67;19.77;;;;;;;2.50;90.98;100701.56;1709544;82;21331;-82
2022/03/01 11:45:20;;;;;;;32.73;19.37;;;;;;;2.60;91.13;100700.38;1712965;82;21193;-83
2022/03/01 11:48:30;;;;;;;29.10;18.12;;;;;;;2.73;91.10;100687.67;1730262;82;21803;-83
2022/03/01 11:51:45;;;;;;;33.67;19.90;;;;;;;2.83;90.23;100685.13;1723443;82;21339;-83
2022/03/01 11:54:49;;;;;;;28.70;17.82;;;;;;;2.85;89.28;100691.75;1742026;82;21307;-76
2022/03/01 11:57:56;;;;;;;26.05;16.48;;;;;;;2.86;89.04;100689.42;1732057;82;21319;-77
2022/03/01 12:01:01;;;;;;;25.27;14.68;;;;;;;2.81;88.50;100694.68;1723172;82;21807;-83
2022/03/01 12:04:12;;;;;;;25.23;15.98;;;;;;;2.76;88.25;100683.86;1722463;82;21299;-76
2022/03/01 12:07:17;;;;;;;28.20;17.15;;;;;;;2.71;88.52;100684.20;1747722;82;21320;-83
2022/03/01 12:10:31;;;;;;;23.62;16.50;;;;;;;2.67;88.87;100665.65;1717987;83;21327;-76
2022/03/01 12:13:46;;;;;;;25.08;15.58;;;;;;;2.62;88.80;100678.16;1718029;83;21709;-83
2022/03/01 12:16:50;;;;;;;23.65;15.63;;;;;;;2.60;89.02;100676.08;1719009;82;21865;-83
2022/03/01 12:20:07;;;;;;;20.95;15.23;;;;;;;2.58;89.01;100677.15;1722970;82;21292;-76
2022/03/01 12:23:11;;;;;;;22.22;15.78;;;;;;;2.58;89.18;100668.55;1717654;82;21206;-76
2022/03/01 12:26:18;;;;;;;25.32;15.90;;;;;;;2.56;88.69;100666.47;1725512;82;21792;-76
2022/03/01 12:29:26;;;;;;;21.65;15.10;;;;;;;2.55;88.80;100666.11;1710226;82;21821;-83
2022/03/01 12:32:34;;;;;;;22.20;15.88;;;;;;;2.57;88.86;100673.59;1709983;82;21899;-83
2022/03/01 12:35:38;;;;;;;22.15;15.28;;;;;;;2.59;88.71;100660.85;1711185;82;21750;-83
2022/03/01 12:38:45;;;;;;;27.22;16.73;;;;;;;2.63;88.74;100663.66;1712017;83;21367;-76
2022/03/01 12:41:51;;;;;;;23.02;14.85;;;;;;;2.65;88.61;100667.13;1717940;83;21347;-83
2022/03/01 12:44:56;;;;;;;30.35;15.78;;;;;;;2.66;88.64;100673.39;1718689;83;21339;-76
2022/03/01 12:48:03;;;;;;;26.07;17.35;;;;;;;2.62;88.58;100666.48;1681247;84;21350;-76
2022/03/01 12:51:09;;;;;;;28.30;15.85;;;;;;;2.60;89.04;100654.96;1708994;83;21230;-76
2022/03/01 12:54:23;;;;;;;25.72;15.68;;;;;;;2.60;89.10;100659.01;1715649;83;21578;-76
2022/03/01 12:57:28;;;;;;;26.02;17.25;;;;;;;2.56;89.22;100663.77;1711197;83;21259;-76
2022/03/01 13:00:34;;;;;;;27.62;18.25;;;;;;;2.52;89.35;100648.78;1707103;83;21284;-77
2022/03/01 13:03:39;;;;;;;27.90;18.23;;;;;;;2.52;90.14;100652.83;1711652;83;21649;-77
2022/03/01 13:06:46;;;;;;;30.80;18.32;;;;;;;2.52;90.37;100644.73;1720145;83;21295;-76
2022/03/01 13:09:54;;;;;;;27.80;18.17;;;;;;;2.52;90.59;100646.08;1711936;83;21798;-76
2022/03/01 13:13:03;;;;;;;29.63;17.07;;;;;;;2.53;90.77;100636.99;1716884;83;21838;-76
2022/03/01 13:16:13;;;;;;;29.10;18.23;;;;;;;2.54;90.83;100629.25;1710563;83;21352;-83
2022/03/01 13:19:22;;;;;;;24.90;16.60;;;;;;;2.53;90.94;100636.99;1722008;83;22013;-83
2022/03/01 13:22:29;;;;;;;23.35;16.20;;;;;;;2.53;91.06;100645.09;1725036;83;21334;-83
2022/03/01 13:25:46;;;;;;;23.55;16.90;;;;;;;2.52;91.46;100636.13;1714000;83;21304;-82
2022/03/01 13:29:06;;;;;;;27.50;18.20;;;;;;;2.54;91.31;100626.55;1706804;83;21268;-76
2022/03/01 13:32:16;;;;;;;26.55;17.95;;;;;;;2.55;91.08;100629.66;1715580;83;21178;-75
2022/03/01 13:35:21;;;;;;;28.98;19.70;;;;;;;2.56;91.16;100621.92;1717530;83;21273;-76
2022/03/01 13:38:27;;;;;;;28.35;18.32;;;;;;;2.56;90.89;100634.06;1716575;83;21181;-83
2022/03/01 13:41:37;;;;;;;26.42;17.95;;;;;;;2.55;90.88;100613.45;1714285;82;21813;-82
2022/03/01 13:44:45;;;;;;;29.65;20.60;;;;;;;2.52;91.13;100615.88;1710719;83;21325;-75
2022/03/01 13:47:51;;;;;;;23.77;15.75;;;;;;;2.54;91.55;100636.01;1718261;83;21321;-75
2022/03/01 13:50:56;;;;;;;29.82;19.20;;;;;;;2.53;91.54;100647.80;1717491;83;21178;-76
2022/03/01 13:54:05;;;;;;;27.40;18.50;;;;;;;2.51;91.47;100631.72;1718337;83;21905;-76
2022/03/01 13:57:11;;;;;;;27.42;20.85;;;;;;;2.51;91.45;100629.51;1727685;83;21189;-82
2022/03/01 14:00:24;;;;;;;27.48;18.92;;;;;;;2.53;91.79;100639.69;1707958;83;21298;-83
2022/03/01 14:03:36;;;;;;;37.25;19.12;;;;;;;2.54;91.71;100631.95;1705384;84;21367;-76
2022/03/01 14:06:55;;;;;;;28.05;19.02;;;;;;;2.56;91.78;100637.63;1705144;84;21356;-82
2022/03/01 14:10:02;;;;;;;31.93;19.17;;;;;;;2.55;91.71;100636.41;1705477;84;21320;-75
2022/03/01 14:13:21;;;;;;;31.62;21.68;;;;;;;2.54;91.31;100634.66;1721261;83;21182;-76
2022/03/01 14:16:32;;;;;;;29.15;18.82;;;;;;;2.52;91.57;100630.73;1734121;83;21303;-76
2022/03/01 14:19:37;;;;;;;29.90;18.75;;;;;;;2.52;91.67;100630.73;1734250;83;21365;-76